WZZ22TM LICA-EPKT
Flight info
| Callsign | WZZ22TM |
|---|---|
| Flight time | 1h 55m |
| Altitude | 39000 |
| Route | CRN DCT CRAYE DCT PINUK DCT KOFER DCT PARAK DCT REDSI DCT MEBAN |
| Aircraft | A320/M-SDE1E2E3FGIJ1J4RWXY/LB1 |
Departure
| Time | 2026-04-15 14:56 |
|---|---|
| Airport | Lamezia Terme Sant'Eufemia International Airport (LICA) |
Arrival
| Time | 2026-04-15 16:52 |
|---|---|
| Airport | Katowice Wojciech Korfanty International Airport (EPKT) |
| Time | Latitude | Longitude | Altitude | Speed | Heading |
|---|---|---|---|---|---|
| 2026-04-15 14:29 | 38.90876 | 16.24450 | 32 ft | 0 kts | 54° |
| 2026-04-15 14:40 | 38.90877 | 16.24451 | 32 ft | 0 kts | 54° |
| 2026-04-15 14:50 | 38.90876 | 16.24454 | 32 ft | 1 kts | 71° |
| 2026-04-15 14:50 | 38.90876 | 16.24455 | 32 ft | 0 kts | 82° |
| 2026-04-15 14:50 | 38.90872 | 16.24458 | 32 ft | 1 kts | 133° |
| 2026-04-15 14:50 | 38.90863 | 16.24461 | 31 ft | 2 kts | 163° |
| 2026-04-15 14:51 | 38.90841 | 16.24460 | 31 ft | 4 kts | 191° |
| 2026-04-15 14:51 | 38.90819 | 16.24426 | 32 ft | 6 kts | 257° |
| 2026-04-15 14:51 | 38.90823 | 16.24355 | 32 ft | 9 kts | 278° |
| 2026-04-15 14:51 | 38.90832 | 16.24262 | 32 ft | 10 kts | 270° |
| 2026-04-15 14:52 | 38.90807 | 16.24206 | 32 ft | 0 kts | 227° |
| 2026-04-15 14:52 | 38.90802 | 16.24199 | 32 ft | 3 kts | 227° |
| 2026-04-15 14:52 | 38.90782 | 16.24168 | 32 ft | 6 kts | 238° |
| 2026-04-15 14:52 | 38.90779 | 16.24101 | 32 ft | 9 kts | 276° |
| 2026-04-15 14:53 | 38.90789 | 16.24010 | 32 ft | 12 kts | 279° |
| 2026-04-15 14:53 | 38.90802 | 16.23896 | 32 ft | 14 kts | 277° |
| 2026-04-15 14:53 | 38.90819 | 16.23762 | 32 ft | 16 kts | 278° |
| 2026-04-15 14:53 | 38.90837 | 16.23609 | 32 ft | 18 kts | 279° |
| 2026-04-15 14:54 | 38.90855 | 16.23441 | 32 ft | 20 kts | 278° |
| 2026-04-15 14:54 | 38.90876 | 16.23260 | 32 ft | 17 kts | 278° |
| 2026-04-15 14:54 | 38.90868 | 16.23124 | 30 ft | 16 kts | 254° |
| 2026-04-15 14:54 | 38.90815 | 16.22985 | 32 ft | 18 kts | 233° |
| 2026-04-15 14:55 | 38.90752 | 16.22910 | 33 ft | 8 kts | 200° |
| 2026-04-15 14:55 | 38.90697 | 16.22925 | 33 ft | 9 kts | 133° |
| 2026-04-15 14:55 | 38.90686 | 16.22984 | 34 ft | 0 kts | 95° |
| 2026-04-15 14:55 | 38.90684 | 16.23012 | 34 ft | 23 kts | 95° |
| 2026-04-15 14:56 | 38.90623 | 16.23533 | 33 ft | 93 kts | 100° |
| 2026-04-15 14:56 | 38.90503 | 16.24595 | 48 ft | 143 kts | 100° |
| 2026-04-15 14:56 | 38.90330 | 16.25846 | 744 ft | 141 kts | 97° |
| 2026-04-15 14:56 | 38.90164 | 16.27097 | 1460 ft | 141 kts | 96° |
| 2026-04-15 14:57 | 38.90012 | 16.28325 | 2031 ft | 143 kts | 99° |
| 2026-04-15 14:57 | 38.89856 | 16.29677 | 2325 ft | 164 kts | 100° |
| 2026-04-15 14:57 | 38.89677 | 16.31225 | 2582 ft | 186 kts | 99° |
| 2026-04-15 14:57 | 38.89476 | 16.32982 | 2858 ft | 212 kts | 99° |
| 2026-04-15 14:58 | 38.89249 | 16.34953 | 3264 ft | 234 kts | 99° |
| 2026-04-15 14:58 | 38.89006 | 16.37081 | 3977 ft | 246 kts | 98° |
| 2026-04-15 14:58 | 38.88754 | 16.39277 | 4934 ft | 249 kts | 99° |
| 2026-04-15 14:58 | 38.88499 | 16.41487 | 5916 ft | 249 kts | 101° |
| 2026-04-15 14:59 | 38.88241 | 16.43702 | 6795 ft | 254 kts | 101° |
| 2026-04-15 14:59 | 38.87975 | 16.45955 | 7592 ft | 258 kts | 101° |
| 2026-04-15 14:59 | 38.87579 | 16.48184 | 8360 ft | 261 kts | 113° |
| 2026-04-15 14:59 | 38.86853 | 16.50338 | 9199 ft | 265 kts | 116° |
| 2026-04-15 15:00 | 38.86097 | 16.52498 | 10075 ft | 267 kts | 116° |
| 2026-04-15 15:00 | 38.85343 | 16.54780 | 10389 ft | 290 kts | 112° |
| 2026-04-15 15:00 | 38.84728 | 16.57353 | 10621 ft | 313 kts | 103° |
| 2026-04-15 15:00 | 38.84760 | 16.60195 | 11196 ft | 327 kts | 83° |
| 2026-04-15 15:01 | 38.85283 | 16.63058 | 11897 ft | 332 kts | 79° |
| 2026-04-15 15:01 | 38.85852 | 16.65953 | 12588 ft | 337 kts | 79° |
| 2026-04-15 15:01 | 38.86418 | 16.68882 | 13263 ft | 341 kts | 80° |
| 2026-04-15 15:01 | 38.87019 | 16.71855 | 13923 ft | 346 kts | 76° |
| 2026-04-15 15:02 | 38.87921 | 16.74742 | 14513 ft | 352 kts | 70° |
| 2026-04-15 15:02 | 38.88920 | 16.77627 | 15099 ft | 356 kts | 69° |
| 2026-04-15 15:02 | 38.89945 | 16.80535 | 15676 ft | 359 kts | 69° |
| 2026-04-15 15:02 | 38.90983 | 16.83474 | 16243 ft | 363 kts | 69° |
| 2026-04-15 15:03 | 38.92030 | 16.86447 | 16816 ft | 367 kts | 70° |
| 2026-04-15 15:03 | 38.93082 | 16.89454 | 17421 ft | 371 kts | 70° |
| 2026-04-15 15:03 | 38.94141 | 16.92496 | 17996 ft | 375 kts | 70° |
| 2026-04-15 15:03 | 38.95207 | 16.95573 | 18536 ft | 379 kts | 70° |
| 2026-04-15 15:04 | 38.96280 | 16.98673 | 19057 ft | 382 kts | 70° |
| 2026-04-15 15:04 | 38.97372 | 17.01805 | 19608 ft | 386 kts | 68° |
| 2026-04-15 15:04 | 38.98796 | 17.04784 | 20155 ft | 395 kts | 55° |
| 2026-04-15 15:04 | 39.00706 | 17.07356 | 20711 ft | 403 kts | 43° |
| 2026-04-15 15:05 | 39.03041 | 17.09387 | 21226 ft | 409 kts | 30° |
| 2026-04-15 15:05 | 39.05697 | 17.10764 | 21737 ft | 415 kts | 19° |
| 2026-04-15 15:05 | 39.08466 | 17.11865 | 22251 ft | 418 kts | 19° |
| 2026-04-15 15:05 | 39.11251 | 17.12978 | 22733 ft | 421 kts | 19° |
| 2026-04-15 15:06 | 39.16877 | 17.15242 | 23660 ft | 426 kts | 19° |
| 2026-04-15 15:06 | 39.19719 | 17.16390 | 24031 ft | 429 kts | 19° |
| 2026-04-15 15:06 | 39.22579 | 17.17546 | 24424 ft | 432 kts | 19° |
| 2026-04-15 15:07 | 39.25451 | 17.18709 | 24800 ft | 435 kts | 19° |
| 2026-04-15 15:07 | 39.28349 | 17.19884 | 25164 ft | 438 kts | 19° |
| 2026-04-15 15:07 | 39.31267 | 17.21070 | 25526 ft | 441 kts | 19° |
| 2026-04-15 15:07 | 39.34205 | 17.22266 | 25886 ft | 444 kts | 19° |
| 2026-04-15 15:08 | 39.37167 | 17.23471 | 26248 ft | 447 kts | 19° |
| 2026-04-15 15:08 | 39.40148 | 17.24680 | 26604 ft | 451 kts | 19° |
| 2026-04-15 15:08 | 39.43111 | 17.25881 | 26952 ft | 454 kts | 18° |
| 2026-04-15 15:08 | 39.46173 | 17.27123 | 27300 ft | 457 kts | 18° |
| 2026-04-15 15:09 | 39.49209 | 17.28356 | 27641 ft | 460 kts | 18° |
| 2026-04-15 15:09 | 39.52230 | 17.29585 | 27977 ft | 463 kts | 18° |
| 2026-04-15 15:09 | 39.55353 | 17.30860 | 28322 ft | 466 kts | 19° |
| 2026-04-15 15:09 | 39.58413 | 17.32113 | 28651 ft | 469 kts | 19° |
| 2026-04-15 15:10 | 39.61533 | 17.33392 | 29012 ft | 471 kts | 19° |
| 2026-04-15 15:10 | 39.64664 | 17.34679 | 29427 ft | 473 kts | 19° |
| 2026-04-15 15:10 | 39.67809 | 17.35971 | 29789 ft | 475 kts | 19° |
| 2026-04-15 15:10 | 39.70973 | 17.37267 | 30121 ft | 478 kts | 19° |
| 2026-04-15 15:11 | 39.74157 | 17.38570 | 30397 ft | 481 kts | 19° |
| 2026-04-15 15:11 | 39.77364 | 17.39886 | 30623 ft | 485 kts | 18° |
| 2026-04-15 15:11 | 39.80599 | 17.41218 | 30769 ft | 492 kts | 18° |
| 2026-04-15 15:11 | 39.83885 | 17.42572 | 30966 ft | 497 kts | 18° |
| 2026-04-15 15:12 | 39.87187 | 17.43934 | 31303 ft | 499 kts | 18° |
| 2026-04-15 15:12 | 39.90500 | 17.45300 | 31640 ft | 500 kts | 18° |
| 2026-04-15 15:12 | 39.93823 | 17.46667 | 31978 ft | 502 kts | 18° |
| 2026-04-15 15:12 | 39.97156 | 17.48040 | 32320 ft | 503 kts | 18° |
| 2026-04-15 15:13 | 40.00498 | 17.49423 | 32644 ft | 505 kts | 18° |
| 2026-04-15 15:13 | 40.03843 | 17.50809 | 33081 ft | 503 kts | 18° |
| 2026-04-15 15:13 | 40.07179 | 17.52192 | 33507 ft | 503 kts | 18° |
| 2026-04-15 15:13 | 40.10521 | 17.53581 | 33861 ft | 505 kts | 18° |
| 2026-04-15 15:14 | 40.13873 | 17.54974 | 34154 ft | 506 kts | 18° |
| 2026-04-15 15:14 | 40.17224 | 17.56368 | 34497 ft | 506 kts | 18° |
| 2026-04-15 15:14 | 40.20569 | 17.57761 | 34934 ft | 503 kts | 18° |
| 2026-04-15 15:14 | 40.23882 | 17.59142 | 35490 ft | 496 kts | 18° |
| 2026-04-15 15:15 | 40.27147 | 17.60504 | 36097 ft | 489 kts | 18° |
| 2026-04-15 15:15 | 40.30364 | 17.61850 | 36674 ft | 482 kts | 18° |
| 2026-04-15 15:15 | 40.33538 | 17.63175 | 37232 ft | 476 kts | 18° |
| 2026-04-15 15:15 | 40.36672 | 17.64484 | 37768 ft | 470 kts | 18° |
| 2026-04-15 15:16 | 40.39767 | 17.65778 | 38285 ft | 464 kts | 18° |
| 2026-04-15 15:16 | 40.42825 | 17.67060 | 38757 ft | 459 kts | 18° |
| 2026-04-15 15:16 | 40.45860 | 17.68337 | 38995 ft | 457 kts | 18° |
| 2026-04-15 15:16 | 40.48846 | 17.69598 | 39041 ft | 457 kts | 18° |
| 2026-04-15 15:17 | 40.54901 | 17.72144 | 39060 ft | 457 kts | 18° |
| 2026-04-15 15:17 | 40.60963 | 17.74693 | 39036 ft | 457 kts | 18° |
| 2026-04-15 15:18 | 40.67023 | 17.77250 | 39054 ft | 457 kts | 18° |
| 2026-04-15 15:18 | 40.73084 | 17.79811 | 39049 ft | 457 kts | 18° |
| 2026-04-15 15:19 | 40.79139 | 17.82375 | 39054 ft | 458 kts | 18° |
| 2026-04-15 15:19 | 40.85205 | 17.84952 | 39053 ft | 458 kts | 18° |
| 2026-04-15 15:20 | 40.90253 | 17.87104 | 39054 ft | 459 kts | 18° |
| 2026-04-15 15:20 | 40.96330 | 17.89693 | 39061 ft | 459 kts | 18° |
| 2026-04-15 15:21 | 41.02410 | 17.92286 | 39063 ft | 459 kts | 18° |
| 2026-04-15 15:21 | 41.08485 | 17.94883 | 39063 ft | 459 kts | 18° |
| 2026-04-15 15:22 | 41.14568 | 17.97490 | 39062 ft | 459 kts | 18° |
| 2026-04-15 15:22 | 41.20650 | 18.00110 | 39065 ft | 459 kts | 18° |
| 2026-04-15 15:23 | 41.26733 | 18.02735 | 39067 ft | 460 kts | 18° |
| 2026-04-15 15:23 | 41.32813 | 18.05360 | 39070 ft | 460 kts | 18° |
| 2026-04-15 15:24 | 41.38901 | 18.07990 | 39071 ft | 460 kts | 18° |
| 2026-04-15 15:24 | 41.44990 | 18.10625 | 39071 ft | 460 kts | 18° |
| 2026-04-15 15:25 | 41.50750 | 18.14103 | 39068 ft | 457 kts | 35° |
| 2026-04-15 15:25 | 41.55566 | 18.19586 | 39072 ft | 455 kts | 45° |
| 2026-04-15 15:26 | 41.60166 | 18.25405 | 39069 ft | 456 kts | 45° |
| 2026-04-15 15:26 | 41.64769 | 18.31227 | 39075 ft | 456 kts | 45° |
| 2026-04-15 15:27 | 41.69375 | 18.37071 | 39074 ft | 456 kts | 45° |
| 2026-04-15 15:27 | 41.73979 | 18.42927 | 39072 ft | 456 kts | 45° |
| 2026-04-15 15:28 | 41.78578 | 18.48796 | 39069 ft | 457 kts | 45° |
| 2026-04-15 15:28 | 41.83180 | 18.54672 | 39071 ft | 457 kts | 45° |
| 2026-04-15 15:29 | 41.87785 | 18.60539 | 39073 ft | 457 kts | 44° |
| 2026-04-15 15:29 | 41.92886 | 18.65600 | 39079 ft | 458 kts | 26° |
| 2026-04-15 15:30 | 41.98916 | 18.68278 | 39081 ft | 457 kts | 13° |
| 2026-04-15 15:30 | 42.05117 | 18.70231 | 39082 ft | 458 kts | 13° |
| 2026-04-15 15:31 | 42.11316 | 18.72209 | 39083 ft | 458 kts | 13° |
| 2026-04-15 15:31 | 42.17510 | 18.74181 | 39091 ft | 457 kts | 13° |
| 2026-04-15 15:32 | 42.23696 | 18.76120 | 39095 ft | 456 kts | 13° |
| 2026-04-15 15:32 | 42.29875 | 18.78078 | 39099 ft | 456 kts | 13° |
| 2026-04-15 15:33 | 42.36042 | 18.80060 | 39100 ft | 455 kts | 13° |
| 2026-04-15 15:33 | 42.42209 | 18.82025 | 39098 ft | 455 kts | 13° |
| 2026-04-15 15:34 | 42.48365 | 18.83986 | 39105 ft | 455 kts | 13° |
| 2026-04-15 15:34 | 42.54474 | 18.85942 | 39101 ft | 453 kts | 13° |
| 2026-04-15 15:35 | 42.60607 | 18.87905 | 39109 ft | 452 kts | 13° |
| 2026-04-15 15:35 | 42.66728 | 18.89870 | 39113 ft | 452 kts | 13° |
| 2026-04-15 15:36 | 42.72831 | 18.91830 | 39109 ft | 451 kts | 13° |
| 2026-04-15 15:36 | 42.78929 | 18.93806 | 39108 ft | 450 kts | 13° |
| 2026-04-15 15:37 | 42.85021 | 18.95790 | 39111 ft | 450 kts | 13° |
| 2026-04-15 15:37 | 42.91115 | 18.97758 | 39111 ft | 450 kts | 13° |
| 2026-04-15 15:38 | 42.97210 | 18.99724 | 39113 ft | 450 kts | 13° |
| 2026-04-15 15:38 | 43.03296 | 19.01701 | 39116 ft | 450 kts | 12° |
| 2026-04-15 15:39 | 43.09381 | 19.03686 | 39121 ft | 449 kts | 12° |
| 2026-04-15 15:39 | 43.15457 | 19.05675 | 39120 ft | 449 kts | 12° |
| 2026-04-15 15:40 | 43.21524 | 19.07669 | 39120 ft | 448 kts | 12° |
| 2026-04-15 15:40 | 43.27592 | 19.09660 | 39123 ft | 448 kts | 12° |
| 2026-04-15 15:41 | 43.33661 | 19.11640 | 39121 ft | 448 kts | 12° |
| 2026-04-15 15:41 | 43.39723 | 19.13633 | 39116 ft | 448 kts | 12° |
| 2026-04-15 15:42 | 43.45789 | 19.15646 | 39127 ft | 448 kts | 12° |
| 2026-04-15 15:42 | 43.51810 | 19.17645 | 39128 ft | 448 kts | 12° |
| 2026-04-15 15:43 | 43.57869 | 19.19651 | 39135 ft | 447 kts | 12° |
| 2026-04-15 15:43 | 43.63919 | 19.21660 | 39138 ft | 447 kts | 13° |
| 2026-04-15 15:44 | 43.69956 | 19.23663 | 39136 ft | 447 kts | 13° |
| 2026-04-15 15:44 | 43.75997 | 19.25677 | 39146 ft | 446 kts | 12° |
| 2026-04-15 15:45 | 43.82027 | 19.27689 | 39152 ft | 445 kts | 12° |
| 2026-04-15 15:45 | 43.88046 | 19.29702 | 39155 ft | 445 kts | 12° |
| 2026-04-15 15:46 | 43.94056 | 19.31723 | 39163 ft | 444 kts | 12° |
| 2026-04-15 15:46 | 44.00060 | 19.33746 | 39159 ft | 444 kts | 12° |
| 2026-04-15 15:47 | 44.06055 | 19.35766 | 39159 ft | 444 kts | 12° |
| 2026-04-15 15:47 | 44.12057 | 19.37786 | 39161 ft | 444 kts | 12° |
| 2026-04-15 15:48 | 44.18058 | 19.39812 | 39159 ft | 444 kts | 12° |
| 2026-04-15 15:48 | 44.24058 | 19.41844 | 39159 ft | 444 kts | 12° |
| 2026-04-15 15:49 | 44.30052 | 19.43886 | 39167 ft | 444 kts | 12° |
| 2026-04-15 15:49 | 44.36050 | 19.45930 | 39164 ft | 444 kts | 12° |
| 2026-04-15 15:50 | 44.42050 | 19.47967 | 39163 ft | 444 kts | 12° |
| 2026-04-15 15:50 | 44.48011 | 19.49994 | 39162 ft | 444 kts | 12° |
| 2026-04-15 15:51 | 44.54001 | 19.52054 | 39163 ft | 444 kts | 12° |
| 2026-04-15 15:51 | 44.59995 | 19.54123 | 39160 ft | 443 kts | 12° |
| 2026-04-15 15:52 | 44.65987 | 19.56190 | 39161 ft | 443 kts | 12° |
| 2026-04-15 15:52 | 44.71979 | 19.58259 | 39162 ft | 443 kts | 12° |
| 2026-04-15 15:53 | 44.77963 | 19.60320 | 39159 ft | 443 kts | 12° |
| 2026-04-15 15:53 | 44.83953 | 19.62385 | 39156 ft | 443 kts | 12° |
| 2026-04-15 15:54 | 44.89938 | 19.64460 | 39156 ft | 443 kts | 12° |
| 2026-04-15 15:54 | 44.95912 | 19.66541 | 39163 ft | 442 kts | 12° |
| 2026-04-15 15:55 | 45.01893 | 19.68621 | 39160 ft | 442 kts | 12° |
| 2026-04-15 15:55 | 45.07869 | 19.70715 | 39163 ft | 442 kts | 12° |
| 2026-04-15 15:56 | 45.13837 | 19.72808 | 39161 ft | 442 kts | 12° |
| 2026-04-15 15:56 | 45.19812 | 19.74905 | 39163 ft | 442 kts | 12° |
| 2026-04-15 15:57 | 45.25786 | 19.77003 | 39169 ft | 442 kts | 12° |
| 2026-04-15 15:57 | 45.31759 | 19.79112 | 39162 ft | 442 kts | 12° |
| 2026-04-15 15:58 | 45.37733 | 19.81219 | 39163 ft | 442 kts | 12° |
| 2026-04-15 15:58 | 45.43701 | 19.83323 | 39168 ft | 442 kts | 12° |
| 2026-04-15 15:59 | 45.49675 | 19.85442 | 39166 ft | 442 kts | 12° |
| 2026-04-15 15:59 | 45.55649 | 19.87568 | 39169 ft | 442 kts | 12° |
| 2026-04-15 16:00 | 45.61625 | 19.89697 | 39162 ft | 443 kts | 12° |
| 2026-04-15 16:00 | 45.67604 | 19.91832 | 39164 ft | 443 kts | 12° |
| 2026-04-15 16:01 | 45.73591 | 19.93972 | 39163 ft | 444 kts | 12° |
| 2026-04-15 16:01 | 45.79579 | 19.96113 | 39162 ft | 444 kts | 12° |
| 2026-04-15 16:02 | 45.85578 | 19.98266 | 39164 ft | 445 kts | 12° |
| 2026-04-15 16:02 | 45.91542 | 20.00415 | 39162 ft | 445 kts | 12° |
| 2026-04-15 16:03 | 45.97552 | 20.02577 | 39166 ft | 445 kts | 12° |
| 2026-04-15 16:03 | 46.03563 | 20.04758 | 39174 ft | 446 kts | 12° |
| 2026-04-15 16:04 | 46.09570 | 20.06940 | 39173 ft | 446 kts | 12° |
| 2026-04-15 16:04 | 46.15609 | 20.08891 | 39174 ft | 443 kts | 3° |
| 2026-04-15 16:05 | 46.21713 | 20.08669 | 39168 ft | 438 kts | 352° |
| 2026-04-15 16:05 | 46.27782 | 20.07807 | 39174 ft | 438 kts | 352° |
| 2026-04-15 16:06 | 46.33841 | 20.06965 | 39178 ft | 438 kts | 352° |
| 2026-04-15 16:06 | 46.39901 | 20.06110 | 39177 ft | 437 kts | 352° |
| 2026-04-15 16:07 | 46.45958 | 20.05259 | 39183 ft | 437 kts | 352° |
| 2026-04-15 16:08 | 46.55025 | 20.03982 | 39184 ft | 436 kts | 352° |
| 2026-04-15 16:08 | 46.61065 | 20.03127 | 39182 ft | 436 kts | 352° |
| 2026-04-15 16:09 | 46.67099 | 20.02274 | 39186 ft | 435 kts | 352° |
| 2026-04-15 16:09 | 46.73126 | 20.01418 | 39185 ft | 435 kts | 352° |
| 2026-04-15 16:10 | 46.78142 | 20.00703 | 39186 ft | 435 kts | 352° |
| 2026-04-15 16:10 | 46.84174 | 19.99837 | 39184 ft | 435 kts | 352° |
| 2026-04-15 16:11 | 46.90200 | 19.98960 | 39185 ft | 435 kts | 352° |
| 2026-04-15 16:11 | 46.96232 | 19.98089 | 39181 ft | 436 kts | 352° |
| 2026-04-15 16:12 | 47.02264 | 19.97230 | 39180 ft | 436 kts | 352° |
| 2026-04-15 16:12 | 47.08303 | 19.96360 | 39177 ft | 436 kts | 352° |
| 2026-04-15 16:13 | 47.14346 | 19.95490 | 39178 ft | 436 kts | 352° |
| 2026-04-15 16:13 | 47.20380 | 19.94611 | 39178 ft | 436 kts | 352° |
| 2026-04-15 16:14 | 47.26422 | 19.93736 | 39177 ft | 436 kts | 352° |
| 2026-04-15 16:14 | 47.32465 | 19.92863 | 39183 ft | 436 kts | 352° |
| 2026-04-15 16:15 | 47.38505 | 19.91972 | 39181 ft | 436 kts | 352° |
| 2026-04-15 16:15 | 47.44540 | 19.91077 | 39183 ft | 435 kts | 352° |
| 2026-04-15 16:16 | 47.50568 | 19.90191 | 39179 ft | 435 kts | 352° |
| 2026-04-15 16:16 | 47.56583 | 19.89316 | 39188 ft | 435 kts | 352° |
| 2026-04-15 16:17 | 47.62601 | 19.88432 | 39185 ft | 434 kts | 352° |
| 2026-04-15 16:17 | 47.68614 | 19.87545 | 39182 ft | 434 kts | 352° |
| 2026-04-15 16:18 | 47.74586 | 19.86663 | 39185 ft | 434 kts | 352° |
| 2026-04-15 16:18 | 47.80636 | 19.85764 | 39186 ft | 434 kts | 352° |
| 2026-04-15 16:19 | 47.86599 | 19.84881 | 39182 ft | 434 kts | 352° |
| 2026-04-15 16:19 | 47.92608 | 19.83982 | 39180 ft | 434 kts | 352° |
| 2026-04-15 16:20 | 47.98616 | 19.83072 | 39182 ft | 434 kts | 352° |
| 2026-04-15 16:20 | 48.04622 | 19.82177 | 39192 ft | 433 kts | 352° |
| 2026-04-15 16:21 | 48.10623 | 19.81284 | 39189 ft | 433 kts | 352° |
| 2026-04-15 16:21 | 48.16621 | 19.80383 | 39193 ft | 433 kts | 352° |
| 2026-04-15 16:22 | 48.22607 | 19.79471 | 39187 ft | 433 kts | 352° |
| 2026-04-15 16:22 | 48.28600 | 19.78564 | 39199 ft | 433 kts | 352° |
| 2026-04-15 16:23 | 48.34590 | 19.77656 | 39194 ft | 432 kts | 352° |
| 2026-04-15 16:23 | 48.40576 | 19.76746 | 39193 ft | 432 kts | 352° |
| 2026-04-15 16:24 | 48.46559 | 19.75828 | 39189 ft | 432 kts | 352° |
| 2026-04-15 16:24 | 48.52532 | 19.74919 | 39206 ft | 432 kts | 352° |
| 2026-04-15 16:25 | 48.58508 | 19.74011 | 39201 ft | 431 kts | 352° |
| 2026-04-15 16:25 | 48.64480 | 19.73091 | 39205 ft | 431 kts | 352° |
| 2026-04-15 16:26 | 48.70450 | 19.72163 | 39202 ft | 431 kts | 352° |
| 2026-04-15 16:26 | 48.76413 | 19.71243 | 39214 ft | 431 kts | 352° |
| 2026-04-15 16:27 | 48.82381 | 19.70330 | 39013 ft | 432 kts | 352° |
| 2026-04-15 16:27 | 48.85408 | 19.69862 | 37977 ft | 442 kts | 352° |
| 2026-04-15 16:27 | 48.88488 | 19.69383 | 37173 ft | 446 kts | 352° |
| 2026-04-15 16:27 | 48.91530 | 19.68910 | 36536 ft | 445 kts | 352° |
| 2026-04-15 16:28 | 48.94614 | 19.68433 | 35917 ft | 445 kts | 353° |
| 2026-04-15 16:28 | 48.97672 | 19.67958 | 35539 ft | 438 kts | 353° |
| 2026-04-15 16:28 | 49.00691 | 19.67485 | 35038 ft | 434 kts | 353° |
| 2026-04-15 16:28 | 49.03684 | 19.67013 | 34560 ft | 430 kts | 353° |
| 2026-04-15 16:29 | 49.06644 | 19.66549 | 34171 ft | 424 kts | 354° |
| 2026-04-15 16:29 | 49.09565 | 19.66094 | 33558 ft | 422 kts | 354° |
| 2026-04-15 16:29 | 49.12465 | 19.65647 | 33108 ft | 416 kts | 353° |
| 2026-04-15 16:29 | 49.15328 | 19.65206 | 32637 ft | 411 kts | 353° |
| 2026-04-15 16:30 | 49.18158 | 19.64763 | 32161 ft | 407 kts | 353° |
| 2026-04-15 16:30 | 49.20965 | 19.64319 | 31665 ft | 403 kts | 353° |
| 2026-04-15 16:30 | 49.23749 | 19.63967 | 31176 ft | 401 kts | 358° |
| 2026-04-15 16:30 | 49.26531 | 19.64045 | 30684 ft | 398 kts | 359° |
| 2026-04-15 16:31 | 49.29294 | 19.64144 | 30178 ft | 396 kts | 359° |
| 2026-04-15 16:31 | 49.32036 | 19.64240 | 29675 ft | 392 kts | 359° |
| 2026-04-15 16:31 | 49.34747 | 19.64326 | 29215 ft | 387 kts | 359° |
| 2026-04-15 16:31 | 49.37427 | 19.64408 | 28778 ft | 383 kts | 359° |
| 2026-04-15 16:32 | 49.40071 | 19.64492 | 28347 ft | 379 kts | 359° |
| 2026-04-15 16:32 | 49.42690 | 19.64882 | 27917 ft | 378 kts | 9° |
| 2026-04-15 16:32 | 49.45191 | 19.66132 | 27493 ft | 379 kts | 22° |
| 2026-04-15 16:32 | 49.47465 | 19.68195 | 27064 ft | 381 kts | 34° |
| 2026-04-15 16:33 | 49.49410 | 19.70971 | 26639 ft | 382 kts | 44° |
| 2026-04-15 16:33 | 49.51224 | 19.73932 | 26211 ft | 380 kts | 44° |
| 2026-04-15 16:33 | 49.53032 | 19.76886 | 25772 ft | 378 kts | 44° |
| 2026-04-15 16:33 | 49.54834 | 19.79830 | 25319 ft | 377 kts | 43° |
| 2026-04-15 16:34 | 49.56631 | 19.82764 | 24872 ft | 376 kts | 43° |
| 2026-04-15 16:34 | 49.58427 | 19.85690 | 24418 ft | 375 kts | 43° |
| 2026-04-15 16:34 | 49.60217 | 19.88613 | 23961 ft | 375 kts | 44° |
| 2026-04-15 16:34 | 49.62002 | 19.91537 | 23450 ft | 374 kts | 44° |
| 2026-04-15 16:35 | 49.63777 | 19.94450 | 22979 ft | 371 kts | 44° |
| 2026-04-15 16:35 | 49.65537 | 19.97339 | 22512 ft | 368 kts | 44° |
| 2026-04-15 16:35 | 49.67282 | 20.00205 | 22060 ft | 365 kts | 44° |
| 2026-04-15 16:35 | 49.69014 | 20.03048 | 21605 ft | 362 kts | 44° |
| 2026-04-15 16:36 | 49.70730 | 20.05868 | 21160 ft | 360 kts | 44° |
| 2026-04-15 16:36 | 49.72418 | 20.08656 | 21023 ft | 351 kts | 44° |
| 2026-04-15 16:36 | 49.74081 | 20.11406 | 20944 ft | 350 kts | 44° |
| 2026-04-15 16:36 | 49.75835 | 20.13978 | 20866 ft | 346 kts | 33° |
| 2026-04-15 16:37 | 49.77903 | 20.15809 | 20786 ft | 341 kts | 19° |
| 2026-04-15 16:37 | 49.80167 | 20.16793 | 20720 ft | 337 kts | 5° |
| 2026-04-15 16:37 | 49.82461 | 20.16906 | 20639 ft | 333 kts | 352° |
| 2026-04-15 16:37 | 49.84733 | 20.16254 | 20578 ft | 332 kts | 345° |
| 2026-04-15 16:38 | 49.86984 | 20.15469 | 20495 ft | 332 kts | 345° |
| 2026-04-15 16:38 | 49.89236 | 20.14686 | 20421 ft | 332 kts | 345° |
| 2026-04-15 16:38 | 49.91487 | 20.13908 | 20343 ft | 331 kts | 345° |
| 2026-04-15 16:38 | 49.93668 | 20.12823 | 20251 ft | 329 kts | 334° |
| 2026-04-15 16:39 | 49.95642 | 20.11054 | 19996 ft | 328 kts | 322° |
| 2026-04-15 16:39 | 49.97338 | 20.08696 | 19542 ft | 326 kts | 314° |
| 2026-04-15 16:39 | 49.98946 | 20.06220 | 19132 ft | 324 kts | 314° |
| 2026-04-15 16:39 | 50.00546 | 20.03762 | 18724 ft | 323 kts | 314° |
| 2026-04-15 16:40 | 50.02139 | 20.01315 | 18291 ft | 321 kts | 314° |
| 2026-04-15 16:40 | 50.03718 | 19.98891 | 17876 ft | 318 kts | 314° |
| 2026-04-15 16:40 | 50.05288 | 19.96484 | 17477 ft | 315 kts | 314° |
| 2026-04-15 16:40 | 50.06844 | 19.94099 | 17083 ft | 313 kts | 314° |
| 2026-04-15 16:41 | 50.08390 | 19.91731 | 16703 ft | 311 kts | 314° |
| 2026-04-15 16:41 | 50.09925 | 19.89372 | 16288 ft | 310 kts | 314° |
| 2026-04-15 16:41 | 50.11456 | 19.87011 | 15841 ft | 310 kts | 314° |
| 2026-04-15 16:41 | 50.12987 | 19.84643 | 15390 ft | 310 kts | 314° |
| 2026-04-15 16:42 | 50.14519 | 19.82271 | 14949 ft | 311 kts | 314° |
| 2026-04-15 16:42 | 50.16053 | 19.79897 | 14524 ft | 311 kts | 314° |
| 2026-04-15 16:42 | 50.17593 | 19.77531 | 14076 ft | 311 kts | 315° |
| 2026-04-15 16:42 | 50.19161 | 19.75215 | 13610 ft | 311 kts | 316° |
| 2026-04-15 16:43 | 50.20909 | 19.73267 | 13302 ft | 307 kts | 330° |
| 2026-04-15 16:43 | 50.22770 | 19.71738 | 13093 ft | 299 kts | 330° |
| 2026-04-15 16:43 | 50.24618 | 19.70204 | 12517 ft | 304 kts | 330° |
| 2026-04-15 16:43 | 50.26504 | 19.68632 | 11897 ft | 310 kts | 330° |
| 2026-04-15 16:44 | 50.28421 | 19.67031 | 11311 ft | 315 kts | 330° |
| 2026-04-15 16:44 | 50.30366 | 19.65410 | 10710 ft | 318 kts | 330° |
| 2026-04-15 16:44 | 50.32332 | 19.63777 | 10126 ft | 321 kts | 330° |
| 2026-04-15 16:44 | 50.34289 | 19.62158 | 9498 ft | 323 kts | 330° |
| 2026-04-15 16:45 | 50.36313 | 19.60491 | 8857 ft | 325 kts | 331° |
| 2026-04-15 16:45 | 50.38293 | 19.58860 | 8244 ft | 326 kts | 331° |
| 2026-04-15 16:45 | 50.40291 | 19.57210 | 7624 ft | 315 kts | 331° |
| 2026-04-15 16:45 | 50.42169 | 19.55653 | 7043 ft | 304 kts | 331° |
| 2026-04-15 16:46 | 50.44012 | 19.54118 | 6444 ft | 296 kts | 331° |
| 2026-04-15 16:46 | 50.45799 | 19.52598 | 5823 ft | 288 kts | 327° |
| 2026-04-15 16:46 | 50.47148 | 19.50399 | 5219 ft | 279 kts | 296° |
| 2026-04-15 16:46 | 50.47548 | 19.47476 | 4581 ft | 274 kts | 271° |
| 2026-04-15 16:47 | 50.47492 | 19.44483 | 3860 ft | 274 kts | 268° |
| 2026-04-15 16:47 | 50.47461 | 19.41492 | 3208 ft | 271 kts | 271° |
| 2026-04-15 16:47 | 50.47476 | 19.38638 | 3037 ft | 251 kts | 271° |
| 2026-04-15 16:47 | 50.47493 | 19.36030 | 3000 ft | 227 kts | 271° |
| 2026-04-15 16:48 | 50.47505 | 19.33682 | 3003 ft | 204 kts | 271° |
| 2026-04-15 16:48 | 50.47514 | 19.31572 | 3002 ft | 184 kts | 272° |
| 2026-04-15 16:48 | 50.47523 | 19.29649 | 3010 ft | 167 kts | 272° |
| 2026-04-15 16:48 | 50.47531 | 19.27878 | 3048 ft | 158 kts | 272° |
| 2026-04-15 16:49 | 50.47539 | 19.26168 | 2991 ft | 154 kts | 272° |
| 2026-04-15 16:49 | 50.47546 | 19.24498 | 2842 ft | 152 kts | 272° |
| 2026-04-15 16:49 | 50.47552 | 19.22850 | 2662 ft | 150 kts | 272° |
| 2026-04-15 16:49 | 50.47559 | 19.21208 | 2464 ft | 150 kts | 272° |
| 2026-04-15 16:50 | 50.47565 | 19.19570 | 2262 ft | 150 kts | 272° |
| 2026-04-15 16:50 | 50.47571 | 19.17937 | 2067 ft | 149 kts | 272° |
| 2026-04-15 16:50 | 50.47579 | 19.16311 | 1809 ft | 149 kts | 271° |
| 2026-04-15 16:50 | 50.47583 | 19.14689 | 1596 ft | 149 kts | 271° |
| 2026-04-15 16:51 | 50.47588 | 19.13076 | 1426 ft | 148 kts | 271° |
| 2026-04-15 16:51 | 50.47592 | 19.11472 | 1200 ft | 146 kts | 271° |
| 2026-04-15 16:51 | 50.47597 | 19.09879 | 1028 ft | 145 kts | 270° |
| 2026-04-15 16:51 | 50.47601 | 19.08493 | 997 ft | 105 kts | 270° |
| 2026-04-15 16:52 | 50.47602 | 19.07614 | 1001 ft | 56 kts | 269° |
| 2026-04-15 16:52 | 50.47594 | 19.07215 | 1002 ft | 30 kts | 257° |
| 2026-04-15 16:52 | 50.47543 | 19.07001 | 1002 ft | 12 kts | 242° |
| 2026-04-15 16:52 | 50.47517 | 19.06932 | 1002 ft | 5 kts | 238° |
| 2026-04-15 16:53 | 50.47493 | 19.06872 | 1003 ft | 8 kts | 240° |
| 2026-04-15 16:53 | 50.47460 | 19.06782 | 998 ft | 11 kts | 240° |
| 2026-04-15 16:53 | 50.47419 | 19.06670 | 1001 ft | 9 kts | 240° |
| 2026-04-15 16:53 | 50.47358 | 19.06624 | 1001 ft | 10 kts | 183° |
| 2026-04-15 16:54 | 50.47283 | 19.06625 | 1000 ft | 8 kts | 178° |
| 2026-04-15 16:54 | 50.47237 | 19.06683 | 998 ft | 10 kts | 103° |
| 2026-04-15 16:54 | 50.47236 | 19.06809 | 1000 ft | 13 kts | 90° |
| 2026-04-15 16:54 | 50.47236 | 19.06912 | 1001 ft | 6 kts | 89° |
| 2026-04-15 16:55 | 50.47236 | 19.06992 | 998 ft | 9 kts | 90° |
| 2026-04-15 16:55 | 50.47235 | 19.07084 | 998 ft | 7 kts | 90° |
| 2026-04-15 16:55 | 50.47235 | 19.07128 | 998 ft | 3 kts | 90° |
| 2026-04-15 16:55 | 50.47218 | 19.07149 | 999 ft | 4 kts | 166° |
| 2026-04-15 16:56 | 50.47193 | 19.07149 | 1000 ft | 2 kts | 181° |
| 2026-04-15 16:56 | 50.47181 | 19.07149 | 998 ft | 1 kts | 180° |
| 2026-04-15 16:56 | 50.47179 | 19.07149 | 998 ft | 0 kts | 180° |